Okay, Oklahoma
Current Conditions -  °F | °C
As of 2:53 PM on Thursday 20 Nov 2014 (Local Time) from KMKO Reporting Station
Clear Clear  
Wind Chill: 54°   Ceiling: Unl
Heat Index: 54°   Visibility: 10mi
Dew Point: 34°   Wind: 7mph
Humidity: 47%   Direction: 110°ESE
Pressure: 30.08"   Gusts: NA
Location:  35.85°N, 95.32°W
Report Text: KMKO 202053Z AUTO 11006KT 10SM CLR 12/01 A3008 RMK AO2 SLP187 T01220011 56019
Loading
Personal Weather Stations






























Interactive Weather Map New forecast layout! Learn more

10-Day Weather Forecast

Advertisements
Track Severe Weather on mobile